Aviation Digital Data Service (ADDS)

Output produced by METARs form (2229 UTC 30 June 2022)
found at http://aviationweather.gov/metar/data/
 
METAR text: KPGV 302215Z AUTO 13009KT 10SM CLR 31/20 A3015 RMK AO2
Conditions at: KPGV (PITT GREENVILLE , NC, US) observed 2215 UTC 30 June 2022
Temperature: 31.0°C (88°F)
Dewpoint: 20.0°C (68°F) [RH = 52%]
Pressure (altimeter): 30.15 inches Hg (1021.1 mb)
Winds: from the SE (130 degrees) at 10 MPH (9 knots; 4.6 m/s)
Visibility: 10 or more miles (16+ km)
Ceiling: at least 12,000 feet AGL
Clouds: sky clear below 12,000 feet AGL
Weather: automated observation with no human augmentation;
there may or may not be significant weather present at this time

METAR text: KPGV 302155Z AUTO 13009KT 10SM CLR 31/19 A3016 RMK AO2
Conditions at: KPGV (PITT GREENVILLE , NC, US) observed 2155 UTC 30 June 2022
Temperature: 31.0°C (88°F)
Dewpoint: 19.0°C (66°F) [RH = 49%]
Pressure (altimeter): 30.16 inches Hg (1021.4 mb)
Winds: from the SE (130 degrees) at 10 MPH (9 knots; 4.6 m/s)
Visibility: 10 or more miles (16+ km)
Ceiling: at least 12,000 feet AGL
Clouds: sky clear below 12,000 feet AGL
Weather: automated observation with no human augmentation;
there may or may not be significant weather present at this time

METAR text: KPGV 302135Z AUTO 13008KT 10SM SCT050 32/19 A3016 RMK AO2
Conditions at: KPGV (PITT GREENVILLE , NC, US) observed 2135 UTC 30 June 2022
Temperature: 32.0°C (90°F)
Dewpoint: 19.0°C (66°F) [RH = 46%]
Pressure (altimeter): 30.16 inches Hg (1021.4 mb)
Winds: from the SE (130 degrees) at 9 MPH (8 knots; 4.1 m/s)
Visibility: 10 or more miles (16+ km)
Ceiling: at least 12,000 feet AGL
Clouds: scattered clouds at 5000 feet AGL
Weather: automated observation with no human augmentation;
there may or may not be significant weather present at this time

METAR text: KPGV 302115Z AUTO 14009KT 10SM SCT050 32/19 A3016 RMK AO2
Conditions at: KPGV (PITT GREENVILLE , NC, US) observed 2115 UTC 30 June 2022
Temperature: 32.0°C (90°F)
Dewpoint: 19.0°C (66°F) [RH = 46%]
Pressure (altimeter): 30.16 inches Hg (1021.4 mb)
Winds: from the SE (140 degrees) at 10 MPH (9 knots; 4.6 m/s)
Visibility: 10 or more miles (16+ km)
Ceiling: at least 12,000 feet AGL
Clouds: scattered clouds at 5000 feet AGL
Weather: automated observation with no human augmentation;
there may or may not be significant weather present at this time

METAR text: KPGV 302055Z AUTO 14009G15KT 10SM SCT050 32/19 A3017 RMK AO2
Conditions at: KPGV (PITT GREENVILLE , NC, US) observed 2055 UTC 30 June 2022
Temperature: 32.0°C (90°F)
Dewpoint: 19.0°C (66°F) [RH = 46%]
Pressure (altimeter): 30.17 inches Hg (1021.8 mb)
Winds: from the SE (140 degrees) at 10 MPH (9 knots; 4.6 m/s)
gusting to 17 MPH (15 knots; 7.7 m/s)
Visibility: 10 or more miles (16+ km)
Ceiling: at least 12,000 feet AGL
Clouds: scattered clouds at 5000 feet AGL
Weather: automated observation with no human augmentation;
there may or may not be significant weather present at this time

METAR text: KPGV 302035Z AUTO 16009G15KT 10SM SCT050 32/18 A3017 RMK AO2
Conditions at: KPGV (PITT GREENVILLE , NC, US) observed 2035 UTC 30 June 2022
Temperature: 32.0°C (90°F)
Dewpoint: 18.0°C (64°F) [RH = 43%]
Pressure (altimeter): 30.17 inches Hg (1021.8 mb)
Winds: from the SSE (160 degrees) at 10 MPH (9 knots; 4.6 m/s)
gusting to 17 MPH (15 knots; 7.7 m/s)
Visibility: 10 or more miles (16+ km)
Ceiling: at least 12,000 feet AGL
Clouds: scattered clouds at 5000 feet AGL
Weather: automated observation with no human augmentation;
there may or may not be significant weather present at this time

Forecast for: KPGV (PITT GREENVILLE , NC, US)
Text: KPGV 301736Z 3018/0118 13005KT P6SM SCT040 SCT250
Forecast period: 1800 UTC 30 June 2022 to 0600 UTC 01 July 2022
Forecast type: FROM: standard forecast or significant change
Winds: from the SE (130 degrees) at 6 MPH (5 knots; 2.6 m/s)
Visibility: 6 or more miles (10+ km)
Ceiling: at least 12,000 feet AGL
Clouds: scattered clouds at 4000 feet AGL
scattered clouds at 25000 feet AGL
Weather: no significant weather forecast for this period
Text: FM010600 00000KT 4SM BR SCT005 SCT250
Forecast period: 0600 to 0800 UTC 01 July 2022
Forecast type: FROM: standard forecast or significant change
Winds: calm
Visibility: 4 miles (6 km)
Ceiling: at least 12,000 feet AGL
Clouds: scattered clouds at 500 feet AGL
scattered clouds at 25000 feet AGL
Weather: BR  (mist)
Text: FM010800 00000KT 1 1/2SM BR BKN005
Forecast period: 0800 to 1200 UTC 01 July 2022
Forecast type: FROM: standard forecast or significant change
Winds: calm
Visibility: 1.50 miles (2.41 km)
Ceiling: 500 feet AGL
Clouds: broken clouds at 500 feet AGL
Weather: BR  (mist)
Text: FM011200 00000KT 4SM BR BKN017
Forecast period: 1200 to 1300 UTC 01 July 2022
Forecast type: FROM: standard forecast or significant change
Winds: calm
Visibility: 4 miles (6 km)
Ceiling: 1700 feet AGL
Clouds: broken clouds at 1700 feet AGL
Weather: BR  (mist)
Text: FM011300 18004KT P6SM SCT015 BKN090 AMD LTD TO CLD VIS AND WIND
Forecast period: 1300 to 1800 UTC 01 July 2022
Forecast type: FROM: standard forecast or significant change
Winds: from the S (180 degrees) at 5 MPH (4 knots; 2.1 m/s)
Visibility: 6 or more miles (10+ km)
Ceiling: 9000 feet AGL
Clouds: scattered clouds at 1500 feet AGL
broken clouds at 9000 feet AGL
Weather: no significant weather forecast for this period